sensor_id;sensor_type;location;lat;lon;timestamp;pressure;altitude;pressure_sealevel;temperature;humidity
50672;BME280;46021;55.882;37.654;2022-08-21T00:01:20;100438.22;;;14.71;49.53
50672;BME280;46021;55.882;37.654;2022-08-21T00:03:47;100432.34;;;14.65;49.67
50672;BME280;46021;55.882;37.654;2022-08-21T00:06:15;100437.78;;;14.60;50.08
50672;BME280;46021;55.882;37.654;2022-08-21T00:08:41;100439.88;;;14.49;50.27
50672;BME280;46021;55.882;37.654;2022-08-21T00:11:09;100439.03;;;14.48;50.64
50672;BME280;46021;55.882;37.654;2022-08-21T00:13:35;100438.25;;;14.46;50.53
50672;BME280;46021;55.882;37.654;2022-08-21T00:16:02;100428.59;;;14.47;50.08
50672;BME280;46021;55.882;37.654;2022-08-21T00:18:29;100432.25;;;14.42;50.22
50672;BME280;46021;55.882;37.654;2022-08-21T00:20:56;100427.94;;;14.40;49.98
50672;BME280;46021;55.882;37.654;2022-08-21T00:23:23;100417.63;;;14.35;50.00
50672;BME280;46021;55.882;37.654;2022-08-21T00:25:49;100426.31;;;14.37;50.18
50672;BME280;46021;55.882;37.654;2022-08-21T00:28:16;100427.19;;;14.36;49.76
50672;BME280;46021;55.882;37.654;2022-08-21T00:30:44;100425.38;;;14.38;49.75
50672;BME280;46021;55.882;37.654;2022-08-21T00:33:12;100429.78;;;14.38;50.19
50672;BME280;46021;55.882;37.654;2022-08-21T00:35:40;100424.53;;;14.38;50.06
50672;BME280;46021;55.882;37.654;2022-08-21T00:38:09;100421.09;;;14.36;49.87
50672;BME280;46021;55.882;37.654;2022-08-21T00:40:40;100422.06;;;14.33;50.26
50672;BME280;46021;55.882;37.654;2022-08-21T00:43:09;100422.06;;;14.33;50.24
50672;BME280;46021;55.882;37.654;2022-08-21T00:45:36;100418.75;;;14.28;50.29
50672;BME280;46021;55.882;37.654;2022-08-21T00:48:03;100413.59;;;14.25;50.61
50672;BME280;46021;55.882;37.654;2022-08-21T00:50:33;100414.50;;;14.26;50.52
50672;BME280;46021;55.882;37.654;2022-08-21T00:53:02;100413.81;;;14.19;50.86
50672;BME280;46021;55.882;37.654;2022-08-21T00:55:30;100412.22;;;14.15;50.73
50672;BME280;46021;55.882;37.654;2022-08-21T00:57:59;100419.91;;;14.19;50.83
50672;BME280;46021;55.882;37.654;2022-08-21T01:00:30;100412.13;;;14.18;50.69
50672;BME280;46021;55.882;37.654;2022-08-21T01:03:00;100413.03;;;14.17;50.84
50672;BME280;46021;55.882;37.654;2022-08-21T01:05:27;100405.47;;;14.08;50.68
50672;BME280;46021;55.882;37.654;2022-08-21T01:07:55;100409.78;;;14.10;51.17
50672;BME280;46021;55.882;37.654;2022-08-21T01:10:23;100405.59;;;14.04;51.14
50672;BME280;46021;55.882;37.654;2022-08-21T01:12:50;100419.59;;;14.03;50.85
50672;BME280;46021;55.882;37.654;2022-08-21T01:15:19;100431.91;;;14.01;50.65
50672;BME280;46021;55.882;37.654;2022-08-21T01:17:47;100421.44;;;14.01;51.18
50672;BME280;46021;55.882;37.654;2022-08-21T01:20:14;100422.28;;;14.02;51.77
50672;BME280;46021;55.882;37.654;2022-08-21T01:22:42;100419.69;;;14.00;51.03
50672;BME280;46021;55.882;37.654;2022-08-21T01:25:11;100418.09;;;13.96;51.13
50672;BME280;46021;55.882;37.654;2022-08-21T01:27:38;100419.88;;;13.96;51.00
50672;BME280;46021;55.882;37.654;2022-08-21T01:30:11;100413.06;;;13.90;50.96
50672;BME280;46021;55.882;37.654;2022-08-21T01:32:38;100424.44;;;13.89;51.14
50672;BME280;46021;55.882;37.654;2022-08-21T01:35:06;100421.84;;;13.89;51.57
50672;BME280;46021;55.882;37.654;2022-08-21T01:37:33;100421.75;;;13.92;51.28
50672;BME280;46021;55.882;37.654;2022-08-21T01:40:00;100419.22;;;13.89;51.37
50672;BME280;46021;55.882;37.654;2022-08-21T01:42:29;100412.50;;;13.82;51.42
50672;BME280;46021;55.882;37.654;2022-08-21T01:44:55;100406.31;;;13.83;51.47
50672;BME280;46021;55.882;37.654;2022-08-21T01:47:22;100411.56;;;13.83;51.21
50672;BME280;46021;55.882;37.654;2022-08-21T01:49:49;100405.44;;;13.84;51.10
50672;BME280;46021;55.882;37.654;2022-08-21T01:52:16;100412.50;;;13.82;51.46
50672;BME280;46021;55.882;37.654;2022-08-21T01:54:43;100419.47;;;13.81;51.13
50672;BME280;46021;55.882;37.654;2022-08-21T01:57:11;100405.03;;;13.70;51.42
50672;BME280;46021;55.882;37.654;2022-08-21T01:59:38;100419.03;;;13.69;51.54
50672;BME280;46021;55.882;37.654;2022-08-21T02:02:06;100412.88;;;13.70;51.66
50672;BME280;46021;55.882;37.654;2022-08-21T02:04:32;100418.16;;;13.68;51.44
50672;BME280;46021;55.882;37.654;2022-08-21T02:07:00;100420.94;;;13.63;51.68
50672;BME280;46021;55.882;37.654;2022-08-21T02:09:27;100415.91;;;13.57;51.89
50672;BME280;46021;55.882;37.654;2022-08-21T02:11:54;100407.22;;;13.55;52.22
50672;BME280;46021;55.882;37.654;2022-08-21T02:14:22;100416.75;;;13.58;51.94
50672;BME280;46021;55.882;37.654;2022-08-21T02:16:48;100421.09;;;13.59;52.05
50672;BME280;46021;55.882;37.654;2022-08-21T02:19:16;100410.75;;;13.54;52.34
50672;BME280;46021;55.882;37.654;2022-08-21T02:21:42;100422.84;;;13.58;52.66
50672;BME280;46021;55.882;37.654;2022-08-21T02:24:09;100423.69;;;13.59;52.21
50672;BME280;46021;55.882;37.654;2022-08-21T02:26:36;100428.94;;;13.59;52.65
50672;BME280;46021;55.882;37.654;2022-08-21T02:29:04;100435.94;;;13.58;52.34
50672;BME280;46021;55.882;37.654;2022-08-21T02:31:31;100433.25;;;13.61;53.21
50672;BME280;46021;55.882;37.654;2022-08-21T02:33:58;100434.94;;;13.62;52.64
50672;BME280;46021;55.882;37.654;2022-08-21T02:36:26;100429.75;;;13.61;52.61
50672;BME280;46021;55.882;37.654;2022-08-21T02:38:54;100426.41;;;13.57;52.89
50672;BME280;46021;55.882;37.654;2022-08-21T02:41:23;100429.69;;;13.62;53.07
50672;BME280;46021;55.882;37.654;2022-08-21T02:43:50;100430.38;;;13.69;52.32
50672;BME280;46021;55.882;37.654;2022-08-21T02:46:18;100426.91;;;13.69;52.53
50672;BME280;46021;55.882;37.654;2022-08-21T02:48:46;100422.47;;;13.71;52.88
50672;BME280;46021;55.882;37.654;2022-08-21T02:51:17;100429.19;;;13.78;52.39
50672;BME280;46021;55.882;37.654;2022-08-21T02:53:44;100426.53;;;13.79;52.58
50672;BME280;46021;55.882;37.654;2022-08-21T02:56:15;100425.59;;;13.82;52.43
50672;BME280;46021;55.882;37.654;2022-08-21T02:58:44;100433.94;;;13.93;52.21
50672;BME280;46021;55.882;37.654;2022-08-21T03:01:11;100435.66;;;13.94;52.22
50672;BME280;46021;55.882;37.654;2022-08-21T03:03:39;100434.13;;;13.87;52.12
50672;BME280;46021;55.882;37.654;2022-08-21T03:06:09;100436.50;;;13.95;52.03
50672;BME280;46021;55.882;37.654;2022-08-21T03:08:37;100431.91;;;14.01;51.98
50672;BME280;46021;55.882;37.654;2022-08-21T03:11:04;100432.44;;;14.11;52.50
50672;BME280;46021;55.882;37.654;2022-08-21T03:13:31;100427.75;;;14.21;52.17
50672;BME280;46021;55.882;37.654;2022-08-21T03:15:58;100424.19;;;14.47;52.11
50672;BME280;46021;55.882;37.654;2022-08-21T03:18:25;100428.53;;;14.73;51.55
50672;BME280;46021;55.882;37.654;2022-08-21T03:20:51;100428.16;;;15.06;51.90
50672;BME280;46021;55.882;37.654;2022-08-21T03:23:19;100436.50;;;15.39;51.38
50672;BME280;46021;55.882;37.654;2022-08-21T03:25:46;100435.03;;;15.54;50.50
50672;BME280;46021;55.882;37.654;2022-08-21T03:28:16;100438.66;;;15.72;50.85
50672;BME280;46021;55.882;37.654;2022-08-21T03:30:45;100437.81;;;15.72;50.07
50672;BME280;46021;55.882;37.654;2022-08-21T03:33:12;100438.56;;;15.97;49.89
50672;BME280;46021;55.882;37.654;2022-08-21T03:35:41;100447.81;;;16.27;50.01
50672;BME280;46021;55.882;37.654;2022-08-21T03:38:08;100440.59;;;16.52;49.46
50672;BME280;46021;55.882;37.654;2022-08-21T03:40:37;100436.53;;;16.85;49.34
50672;BME280;46021;55.882;37.654;2022-08-21T03:43:04;100442.94;;;17.17;48.42
50672;BME280;46021;55.882;37.654;2022-08-21T03:45:32;100438.81;;;17.48;48.63
50672;BME280;46021;55.882;37.654;2022-08-21T03:48:01;100440.88;;;17.60;47.68
50672;BME280;46021;55.882;37.654;2022-08-21T03:50:32;100438.63;;;17.52;46.98
50672;BME280;46021;55.882;37.654;2022-08-21T03:52:59;100443.34;;;17.63;46.42
50672;BME280;46021;55.882;37.654;2022-08-21T03:55:27;100456.06;;;17.72;46.13
50672;BME280;46021;55.882;37.654;2022-08-21T03:57:54;100444.22;;;17.64;45.69
50672;BME280;46021;55.882;37.654;2022-08-21T04:00:21;100433.81;;;17.61;45.25
50672;BME280;46021;55.882;37.654;2022-08-21T04:02:48;100441.25;;;17.52;45.38
50672;BME280;46021;55.882;37.654;2022-08-21T04:05:16;100436.53;;;17.77;44.55
50672;BME280;46021;55.882;37.654;2022-08-21T04:07:54;100425.81;;;17.99;45.13
50672;BME280;46021;55.882;37.654;2022-08-21T04:10:21;100426.16;;;18.26;44.14
50672;BME280;46021;55.882;37.654;2022-08-21T04:12:47;100430.75;;;18.40;44.09
50672;BME280;46021;55.882;37.654;2022-08-21T04:15:14;100439.38;;;18.59;43.91
50672;BME280;46021;55.882;37.654;2022-08-21T04:17:41;100436.22;;;18.86;43.98
50672;BME280;46021;55.882;37.654;2022-08-21T04:20:08;100439.06;;;18.83;43.15
50672;BME280;46021;55.882;37.654;2022-08-21T04:22:35;100435.13;;;19.22;43.38
50672;BME280;46021;55.882;37.654;2022-08-21T04:25:02;100430.88;;;19.51;42.61
50672;BME280;46021;55.882;37.654;2022-08-21T04:27:29;100426.25;;;19.55;42.32
50672;BME280;46021;55.882;37.654;2022-08-21T04:29:56;100428.19;;;19.67;42.21
50672;BME280;46021;55.882;37.654;2022-08-21T04:32:23;100434.34;;;19.98;42.01
50672;BME280;46021;55.882;37.654;2022-08-21T04:34:50;100433.75;;;20.23;42.13
50672;BME280;46021;55.882;37.654;2022-08-21T04:37:17;100428.19;;;20.42;41.07
50672;BME280;46021;55.882;37.654;2022-08-21T04:39:43;100423.84;;;20.55;40.72
50672;BME280;46021;55.882;37.654;2022-08-21T04:42:10;100436.81;;;20.89;40.62
50672;BME280;46021;55.882;37.654;2022-08-21T04:44:36;100435.38;;;20.97;39.50
50672;BME280;46021;55.882;37.654;2022-08-21T04:47:03;100436.88;;;21.01;39.05
50672;BME280;46021;55.882;37.654;2022-08-21T04:49:31;100438.78;;;20.99;38.86
50672;BME280;46021;55.882;37.654;2022-08-21T04:51:58;100437.28;;;20.81;38.06
50672;BME280;46021;55.882;37.654;2022-08-21T04:54:25;100439.31;;;21.19;39.40
50672;BME280;46021;55.882;37.654;2022-08-21T04:56:54;100437.81;;;21.15;38.46
50672;BME280;46021;55.882;37.654;2022-08-21T04:59:24;100430.09;;;21.39;38.05
50672;BME280;46021;55.882;37.654;2022-08-21T05:01:52;100443.25;;;21.68;38.33
50672;BME280;46021;55.882;37.654;2022-08-21T05:04:25;100441.56;;;22.07;37.25
50672;BME280;46021;55.882;37.654;2022-08-21T05:06:54;100429.69;;;22.51;36.75
50672;BME280;46021;55.882;37.654;2022-08-21T05:09:24;100434.53;;;23.08;36.54
50672;BME280;46021;55.882;37.654;2022-08-21T05:11:51;100439.97;;;23.55;35.77
50672;BME280;46021;55.882;37.654;2022-08-21T05:14:18;100436.97;;;24.19;34.92
50672;BME280;46021;55.882;37.654;2022-08-21T05:16:45;100428.22;;;24.75;34.01
50672;BME280;46021;55.882;37.654;2022-08-21T05:19:12;100428.13;;;25.43;33.63
50672;BME280;46021;55.882;37.654;2022-08-21T05:21:40;100420.69;;;25.79;32.93
50672;BME280;46021;55.882;37.654;2022-08-21T05:24:08;100424.69;;;26.05;31.33
50672;BME280;46021;55.882;37.654;2022-08-21T05:26:35;100432.03;;;26.34;31.01
50672;BME280;46021;55.882;37.654;2022-08-21T05:29:02;100421.44;;;26.54;31.01
50672;BME280;46021;55.882;37.654;2022-08-21T05:31:28;100418.88;;;26.21;30.62
50672;BME280;46021;55.882;37.654;2022-08-21T05:33:55;100422.66;;;26.19;30.49
50672;BME280;46021;55.882;37.654;2022-08-21T05:36:22;100419.63;;;26.54;30.42
50672;BME280;46021;55.882;37.654;2022-08-21T05:38:49;100405.66;;;26.81;30.17
50672;BME280;46021;55.882;37.654;2022-08-21T05:41:16;100415.50;;;27.41;29.93
50672;BME280;46021;55.882;37.654;2022-08-21T05:43:43;100420.88;;;27.99;28.86
50672;BME280;46021;55.882;37.654;2022-08-21T05:46:09;100412.72;;;28.48;28.63
50672;BME280;46021;55.882;37.654;2022-08-21T05:48:36;100407.84;;;28.99;28.03
50672;BME280;46021;55.882;37.654;2022-08-21T05:51:06;100407.59;;;29.56;27.26
50672;BME280;46021;55.882;37.654;2022-08-21T05:53:32;100400.09;;;29.42;26.65
50672;BME280;46021;55.882;37.654;2022-08-21T05:55:59;100405.06;;;29.72;26.88
50672;BME280;46021;55.882;37.654;2022-08-21T05:58:26;100395.25;;;29.81;25.08
50672;BME280;46021;55.882;37.654;2022-08-21T06:00:53;100398.69;;;29.20;26.02
50672;BME280;46021;55.882;37.654;2022-08-21T06:03:23;100396.19;;;28.06;26.67
50672;BME280;46021;55.882;37.654;2022-08-21T06:05:50;100402.84;;;26.73;27.79
50672;BME280;46021;55.882;37.654;2022-08-21T06:08:17;100398.34;;;25.47;28.27
50672;BME280;46021;55.882;37.654;2022-08-21T06:10:44;100405.41;;;24.48;29.50
50672;BME280;46021;55.882;37.654;2022-08-21T06:13:11;100411.16;;;23.49;31.00
50672;BME280;46021;55.882;37.654;2022-08-21T06:15:38;100403.69;;;23.06;31.41
50672;BME280;46021;55.882;37.654;2022-08-21T06:18:05;100401.38;;;22.88;31.76
50672;BME280;46021;55.882;37.654;2022-08-21T06:20:31;100401.00;;;22.69;31.92
50672;BME280;46021;55.882;37.654;2022-08-21T06:22:58;100391.66;;;22.50;32.07
50672;BME280;46021;55.882;37.654;2022-08-21T06:25:25;100391.72;;;21.85;32.73
50672;BME280;46021;55.882;37.654;2022-08-21T06:27:51;100395.59;;;21.66;33.60
50672;BME280;46021;55.882;37.654;2022-08-21T06:30:18;100396.84;;;21.60;33.19
50672;BME280;46021;55.882;37.654;2022-08-21T06:32:46;100389.81;;;21.47;33.94
50672;BME280;46021;55.882;37.654;2022-08-21T06:35:12;100383.44;;;21.49;33.61
50672;BME280;46021;55.882;37.654;2022-08-21T06:37:39;100396.44;;;21.39;33.77
50672;BME280;46021;55.882;37.654;2022-08-21T06:40:06;100378.44;;;21.17;34.17
50672;BME280;46021;55.882;37.654;2022-08-21T06:42:33;100383.09;;;21.14;34.25
50672;BME280;46021;55.882;37.654;2022-08-21T06:45:00;100392.91;;;21.26;34.47
50672;BME280;46021;55.882;37.654;2022-08-21T06:47:26;100389.75;;;21.34;34.28
50672;BME280;46021;55.882;37.654;2022-08-21T06:49:54;100382.16;;;21.42;34.01
50672;BME280;46021;55.882;37.654;2022-08-21T06:52:20;100386.75;;;21.53;33.96
50672;BME280;46021;55.882;37.654;2022-08-21T06:54:47;100380.50;;;21.54;33.68
50672;BME280;46021;55.882;37.654;2022-08-21T06:57:13;100381.59;;;21.64;34.15
50672;BME280;46021;55.882;37.654;2022-08-21T06:59:40;100374.88;;;21.58;33.57
50672;BME280;46021;55.882;37.654;2022-08-21T07:02:07;100365.50;;;21.40;33.08
50672;BME280;46021;55.882;37.654;2022-08-21T07:04:34;100361.19;;;21.52;33.30
50672;BME280;46021;55.882;37.654;2022-08-21T07:07:01;100378.28;;;21.48;32.17
50672;BME280;46021;55.882;37.654;2022-08-21T07:09:28;100376.28;;;21.51;32.55
50672;BME280;46021;55.882;37.654;2022-08-21T07:11:56;100365.38;;;21.41;32.24
50672;BME280;46021;55.882;37.654;2022-08-21T07:14:23;100355.72;;;21.40;32.07
50672;BME280;46021;55.882;37.654;2022-08-21T07:16:50;100367.16;;;21.55;32.65
50672;BME280;46021;55.882;37.654;2022-08-21T07:19:17;100376.22;;;21.78;32.51
50672;BME280;46021;55.882;37.654;2022-08-21T07:21:44;100374.00;;;21.98;32.44
50672;BME280;46021;55.882;37.654;2022-08-21T07:24:12;100366.13;;;22.09;32.26
50672;BME280;46021;55.882;37.654;2022-08-21T07:26:39;100366.47;;;22.17;32.16
50672;BME280;46021;55.882;37.654;2022-08-21T07:29:06;100373.94;;;22.25;32.14
50672;BME280;46021;55.882;37.654;2022-08-21T07:31:32;100372.97;;;22.39;32.25
50672;BME280;46021;55.882;37.654;2022-08-21T07:33:59;100361.06;;;22.45;31.86
50672;BME280;46021;55.882;37.654;2022-08-21T07:36:25;100353.44;;;22.27;30.93
50672;BME280;46021;55.882;37.654;2022-08-21T07:38:52;100373.06;;;22.37;30.68
50672;BME280;46021;55.882;37.654;2022-08-21T07:41:21;100361.25;;;22.54;31.00
50672;BME280;46021;55.882;37.654;2022-08-21T07:43:48;100362.31;;;22.65;30.86
50672;BME280;46021;55.882;37.654;2022-08-21T07:46:15;100342.94;;;22.63;30.30
50672;BME280;46021;55.882;37.654;2022-08-21T07:48:42;100362.88;;;22.81;30.29
50672;BME280;46021;55.882;37.654;2022-08-21T07:51:11;100349.66;;;22.92;30.22
50672;BME280;46021;55.882;37.654;2022-08-21T07:53:39;100355.59;;;23.09;29.83
50672;BME280;46021;55.882;37.654;2022-08-21T07:56:07;100361.75;;;23.33;29.76
50672;BME280;46021;55.882;37.654;2022-08-21T07:58:35;100342.72;;;23.51;29.96
50672;BME280;46021;55.882;37.654;2022-08-21T08:01:01;100353.78;;;23.69;29.74
50672;BME280;46021;55.882;37.654;2022-08-21T08:03:30;100355.19;;;23.86;29.49
50672;BME280;46021;55.882;37.654;2022-08-21T08:05:57;100350.38;;;24.02;29.29
50672;BME280;46021;55.882;37.654;2022-08-21T08:08:24;100357.75;;;24.10;28.53
50672;BME280;46021;55.882;37.654;2022-08-21T08:10:50;100358.38;;;24.13;28.05
50672;BME280;46021;55.882;37.654;2022-08-21T08:13:18;100351.69;;;24.08;27.72
50672;BME280;46021;55.882;37.654;2022-08-21T08:15:45;100364.09;;;24.20;27.47
50672;BME280;46021;55.882;37.654;2022-08-21T08:18:11;100354.28;;;24.43;27.22
50672;BME280;46021;55.882;37.654;2022-08-21T08:20:39;100343.13;;;24.49;26.72
50672;BME280;46021;55.882;37.654;2022-08-21T08:23:06;100346.28;;;24.77;26.43
50672;BME280;46021;55.882;37.654;2022-08-21T08:25:32;100334.13;;;24.96;26.70
50672;BME280;46021;55.882;37.654;2022-08-21T08:27:59;100329.41;;;25.20;26.02
50672;BME280;46021;55.882;37.654;2022-08-21T08:30:26;100323.03;;;25.44;26.55
50672;BME280;46021;55.882;37.654;2022-08-21T08:32:53;100326.56;;;25.65;26.12
50672;BME280;46021;55.882;37.654;2022-08-21T08:35:19;100320.38;;;25.86;26.31
50672;BME280;46021;55.882;37.654;2022-08-21T08:37:46;100315.75;;;25.88;25.41
50672;BME280;46021;55.882;37.654;2022-08-21T08:40:14;100311.91;;;26.02;25.98
50672;BME280;46021;55.882;37.654;2022-08-21T08:42:45;100309.00;;;26.15;26.05
50672;BME280;46021;55.882;37.654;2022-08-21T08:45:16;100304.97;;;26.20;25.12
50672;BME280;46021;55.882;37.654;2022-08-21T08:47:46;100301.63;;;26.38;25.21
50672;BME280;46021;55.882;37.654;2022-08-21T08:50:17;100298.09;;;26.68;25.21
50672;BME280;46021;55.882;37.654;2022-08-21T08:52:50;100298.00;;;27.18;24.47
50672;BME280;46021;55.882;37.654;2022-08-21T08:55:21;100294.16;;;28.17;24.67
50672;BME280;46021;55.882;37.654;2022-08-21T08:57:50;100303.59;;;29.12;23.10
50672;BME280;46021;55.882;37.654;2022-08-21T09:00:20;100292.59;;;29.78;22.10
50672;BME280;46021;55.882;37.654;2022-08-21T09:02:52;100305.00;;;30.39;20.75
50672;BME280;46021;55.882;37.654;2022-08-21T09:05:23;100303.69;;;31.11;20.86
50672;BME280;46021;55.882;37.654;2022-08-21T09:10:54;100289.84;;;32.75;18.90
50672;BME280;46021;55.882;37.654;2022-08-21T09:13:29;100283.47;;;32.91;17.71
50672;BME280;46021;55.882;37.654;2022-08-21T09:16:05;100292.97;;;33.33;17.94
50672;BME280;46021;55.882;37.654;2022-08-21T09:18:42;100279.47;;;33.48;17.42
50672;BME280;46021;55.882;37.654;2022-08-21T09:21:17;100274.91;;;34.01;18.02
50672;BME280;46021;55.882;37.654;2022-08-21T09:23:52;100288.88;;;33.90;16.91
50672;BME280;46021;55.882;37.654;2022-08-21T09:26:24;100291.78;;;34.03;17.59
50672;BME280;46021;55.882;37.654;2022-08-21T09:28:53;100294.28;;;34.20;17.39
50672;BME280;46021;55.882;37.654;2022-08-21T09:31:27;100302.84;;;34.08;16.64
50672;BME280;46021;55.882;37.654;2022-08-21T09:34:01;100295.03;;;33.46;16.40
50672;BME280;46021;55.882;37.654;2022-08-21T09:36:36;100281.97;;;32.65;16.63
50672;BME280;46021;55.882;37.654;2022-08-21T09:39:04;100289.41;;;32.63;17.83
50672;BME280;46021;55.882;37.654;2022-08-21T09:41:33;100284.38;;;32.52;17.95
50672;BME280;46021;55.882;37.654;2022-08-21T09:44:02;100287.75;;;32.45;17.97
50672;BME280;46021;55.882;37.654;2022-08-21T09:46:29;100292.84;;;32.01;17.83
50672;BME280;46021;55.882;37.654;2022-08-21T09:48:57;100284.81;;;31.68;18.43
50672;BME280;46021;55.882;37.654;2022-08-21T09:51:26;100293.25;;;31.65;18.95
50672;BME280;46021;55.882;37.654;2022-08-21T09:53:56;100293.94;;;31.18;19.01
50672;BME280;46021;55.882;37.654;2022-08-21T09:56:29;100285.19;;;30.91;19.24
50672;BME280;46021;55.882;37.654;2022-08-21T09:59:24;100284.84;;;31.11;18.97
50672;BME280;46021;55.882;37.654;2022-08-21T10:01:51;100290.22;;;31.19;18.72
50672;BME280;46021;55.882;37.654;2022-08-21T10:04:23;100279.88;;;30.81;19.04
50672;BME280;46021;55.882;37.654;2022-08-21T10:06:50;100282.22;;;30.60;19.26
50672;BME280;46021;55.882;37.654;2022-08-21T10:09:18;100281.69;;;29.35;19.80
50672;BME280;46021;55.882;37.654;2022-08-21T10:11:52;100283.81;;;29.49;20.12
50672;BME280;46021;55.882;37.654;2022-08-21T10:14:27;100286.25;;;29.61;20.13
50672;BME280;46021;55.882;37.654;2022-08-21T10:17:04;100278.34;;;29.41;20.04
50672;BME280;46021;55.882;37.654;2022-08-21T10:19:40;100279.31;;;29.76;20.21
50672;BME280;46021;55.882;37.654;2022-08-21T10:22:19;100267.84;;;30.00;19.38
50672;BME280;46021;55.882;37.654;2022-08-21T10:24:52;100265.47;;;29.97;19.08
50672;BME280;46021;55.882;37.654;2022-08-21T10:27:31;100260.94;;;29.98;19.48
50672;BME280;46021;55.882;37.654;2022-08-21T10:30:06;100265.47;;;29.71;19.42
50672;BME280;46021;55.882;37.654;2022-08-21T10:32:54;100271.94;;;29.78;19.82
50672;BME280;46021;55.882;37.654;2022-08-21T10:35:29;100259.03;;;29.64;19.24
50672;BME280;46021;55.882;37.654;2022-08-21T10:38:07;100259.97;;;29.54;19.12
50672;BME280;46021;55.882;37.654;2022-08-21T10:40:42;100260.94;;;29.71;19.34
50672;BME280;46021;55.882;37.654;2022-08-21T10:43:18;100262.84;;;29.79;19.18
50672;BME280;46021;55.882;37.654;2022-08-21T10:45:54;100257.41;;;29.45;19.41
50672;BME280;46021;55.882;37.654;2022-08-21T10:48:28;100256.53;;;29.36;19.75
50672;BME280;46021;55.882;37.654;2022-08-21T10:50:59;100257.28;;;28.74;19.67
50672;BME280;46021;55.882;37.654;2022-08-21T10:53:45;100257.66;;;28.62;20.07
50672;BME280;46021;55.882;37.654;2022-08-21T10:56:18;100261.38;;;27.95;20.25
50672;BME280;46021;55.882;37.654;2022-08-21T10:58:53;100251.09;;;27.34;20.63
50672;BME280;46021;55.882;37.654;2022-08-21T11:01:30;100245.75;;;27.34;20.82
50672;BME280;46021;55.882;37.654;2022-08-21T11:04:09;100254.16;;;27.19;20.19
50672;BME280;46021;55.882;37.654;2022-08-21T11:06:40;100245.47;;;26.98;20.28
50672;BME280;46021;55.882;37.654;2022-08-21T11:09:11;100250.09;;;27.15;20.70
50672;BME280;46021;55.882;37.654;2022-08-21T11:11:45;100244.03;;;27.33;20.79
50672;BME280;46021;55.882;37.654;2022-08-21T11:14:24;100245.97;;;27.60;20.71
50672;BME280;46021;55.882;37.654;2022-08-21T11:17:02;100243.31;;;27.97;21.09
50672;BME280;46021;55.882;37.654;2022-08-21T11:19:36;100237.22;;;28.05;20.49
50672;BME280;46021;55.882;37.654;2022-08-21T11:22:10;100233.44;;;27.88;20.46
50672;BME280;46021;55.882;37.654;2022-08-21T11:24:42;100235.03;;;27.91;20.69
50672;BME280;46021;55.882;37.654;2022-08-21T11:27:18;100235.53;;;27.57;20.78
50672;BME280;46021;55.882;37.654;2022-08-21T11:29:49;100234.16;;;27.23;20.94
50672;BME280;46021;55.882;37.654;2022-08-21T11:35:34;100235.84;;;27.44;21.28
50672;BME280;46021;55.882;37.654;2022-08-21T11:38:16;100238.81;;;27.41;21.16
50672;BME280;46021;55.882;37.654;2022-08-21T11:40:59;100222.63;;;27.23;21.27
50672;BME280;46021;55.882;37.654;2022-08-21T11:43:38;100235.31;;;27.01;21.03
50672;BME280;46021;55.882;37.654;2022-08-21T11:46:14;100238.41;;;26.87;21.32
50672;BME280;46021;55.882;37.654;2022-08-21T11:48:52;100246.00;;;26.72;21.43
50672;BME280;46021;55.882;37.654;2022-08-21T11:51:22;100248.06;;;26.59;21.22
50672;BME280;46021;55.882;37.654;2022-08-21T11:53:56;100245.31;;;26.70;21.07
50672;BME280;46021;55.882;37.654;2022-08-21T11:56:31;100245.16;;;26.91;21.39
50672;BME280;46021;55.882;37.654;2022-08-21T11:59:05;100246.56;;;27.05;21.45
50672;BME280;46021;55.882;37.654;2022-08-21T12:01:36;100241.22;;;27.05;21.40
50672;BME280;46021;55.882;37.654;2022-08-21T12:04:10;100237.56;;;26.87;21.39
50672;BME280;46021;55.882;37.654;2022-08-21T12:06:43;100242.91;;;26.67;21.65
50672;BME280;46021;55.882;37.654;2022-08-21T12:09:24;100240.31;;;26.56;21.89
50672;BME280;46021;55.882;37.654;2022-08-21T12:12:01;100233.22;;;26.25;21.60
50672;BME280;46021;55.882;37.654;2022-08-21T12:14:37;100238.13;;;26.11;22.07
50672;BME280;46021;55.882;37.654;2022-08-21T12:17:07;100235.97;;;26.04;22.16
50672;BME280;46021;55.882;37.654;2022-08-21T12:19:34;100242.50;;;25.91;22.39
50672;BME280;46021;55.882;37.654;2022-08-21T12:22:09;100230.78;;;25.82;22.73
50672;BME280;46021;55.882;37.654;2022-08-21T12:24:38;100223.94;;;25.58;22.43
50672;BME280;46021;55.882;37.654;2022-08-21T12:27:26;100224.81;;;25.68;22.78
50672;BME280;46021;55.882;37.654;2022-08-21T12:29:56;100237.66;;;25.75;22.88
50672;BME280;46021;55.882;37.654;2022-08-21T12:32:27;100224.31;;;25.75;22.83
50672;BME280;46021;55.882;37.654;2022-08-21T12:35:01;100211.66;;;25.77;22.50
50672;BME280;46021;55.882;37.654;2022-08-21T12:37:38;100215.22;;;25.87;22.19
50672;BME280;46021;55.882;37.654;2022-08-21T12:40:11;100211.97;;;25.83;21.89
50672;BME280;46021;55.882;37.654;2022-08-21T12:42:43;100218.53;;;26.00;22.35
50672;BME280;46021;55.882;37.654;2022-08-21T12:45:19;100221.41;;;26.18;22.11
50672;BME280;46021;55.882;37.654;2022-08-21T12:47:51;100227.88;;;26.25;21.94
50672;BME280;46021;55.882;37.654;2022-08-21T12:50:23;100226.81;;;26.48;22.10
50672;BME280;46021;55.882;37.654;2022-08-21T12:52:57;100227.53;;;26.59;21.81
50672;BME280;46021;55.882;37.654;2022-08-21T12:55:28;100226.53;;;26.51;21.90
50672;BME280;46021;55.882;37.654;2022-08-21T12:57:56;100224.56;;;26.53;22.23